Time;durP1;ratioP1;P1;durP2;ratioP2;P2;SDS_P1;SDS_P2;PMS_P1;PMS_P2;Temp;Humidity;BMP_temperature;BMP_pressure;BME280_temperature;BME280_humidity;BME280_pressure;Samples;Min_cycle;Max_cycle;Signal;HPM_P1;HPM_P2
2022/03/06 00:00:34;;;;;;;6.45;3.60;;;0.00;80.20;;;;;;5052759;28;20392;-81
2022/03/06 00:03:02;;;;;;;8.43;4.07;;;0.00;80.10;;;;;;5038012;28;20029;-82
2022/03/06 00:05:27;;;;;;;7.85;3.78;;;0.10;80.00;;;;;;5052031;28;20017;-82
2022/03/06 00:07:56;;;;;;;7.85;3.78;;;0.10;80.00;;;;;;5040902;28;20052;-82
2022/03/06 00:10:22;;;;;;;6.95;3.60;;;0.10;79.80;;;;;;5044310;28;20486;-83
2022/03/06 00:12:47;;;;;;;6.90;3.83;;;0.10;79.60;;;;;;5045868;28;20025;-82
2022/03/06 00:15:13;;;;;;;6.38;3.70;;;0.10;79.60;;;;;;5036986;28;20029;-82
2022/03/06 00:17:38;;;;;;;9.20;4.03;;;0.10;79.50;;;;;;5035362;28;20385;-81
2022/03/06 00:20:08;;;;;;;8.02;3.55;;;0.10;79.40;;;;;;5045500;28;20036;-82
2022/03/06 00:22:33;;;;;;;7.18;3.65;;;0.10;79.30;;;;;;5044659;28;20120;-81
2022/03/06 00:24:59;;;;;;;11.35;4.32;;;0.10;79.20;;;;;;5041929;28;20458;-82
2022/03/06 00:27:24;;;;;;;8.43;4.20;;;0.10;79.00;;;;;;5044099;28;20481;-81
2022/03/06 00:29:50;;;;;;;5.85;3.40;;;0.10;79.00;;;;;;5037158;28;20082;-81
2022/03/06 00:32:16;;;;;;;5.72;3.42;;;0.00;79.10;;;;;;5052287;28;20040;-82
2022/03/06 00:34:42;;;;;;;8.80;3.70;;;0.00;79.20;;;;;;5050503;28;20036;-81
2022/03/06 00:37:08;;;;;;;5.22;3.25;;;0.00;79.40;;;;;;5047948;28;20025;-81
2022/03/06 00:39:34;;;;;;;8.88;2.92;;;0.00;79.30;;;;;;5035133;28;20093;-81
2022/03/06 00:42:00;;;;;;;8.98;3.67;;;0.00;79.40;;;;;;5040728;28;20400;-81
2022/03/06 00:44:26;;;;;;;6.90;3.55;;;0.00;79.50;;;;;;5042131;28;20136;-81
2022/03/06 00:46:51;;;;;;;7.50;3.38;;;0.00;79.40;;;;;;5042982;28;20081;-81
2022/03/06 00:49:17;;;;;;;7.28;3.63;;;0.00;79.30;;;;;;5047642;28;20116;-83
2022/03/06 00:51:43;;;;;;;7.50;3.85;;;0.00;79.00;;;;;;5051055;28;20029;-81
2022/03/06 00:54:08;;;;;;;6.38;3.20;;;0.10;78.80;;;;;;5042301;28;20021;-83
2022/03/06 00:56:34;;;;;;;7.32;3.92;;;0.10;78.20;;;;;;5048869;28;20025;-81
2022/03/06 00:59:00;;;;;;;8.30;3.20;;;0.20;78.10;;;;;;5050578;28;20515;-81
2022/03/06 01:01:25;;;;;;;7.18;3.70;;;0.20;78.70;;;;;;5036102;28;20056;-81
2022/03/06 01:03:51;;;;;;;6.85;3.42;;;0.20;78.70;;;;;;5046763;28;20558;-81
2022/03/06 01:06:16;;;;;;;6.22;3.40;;;0.20;78.60;;;;;;5049128;28;20021;-81
2022/03/06 01:08:42;;;;;;;7.30;3.53;;;0.20;78.50;;;;;;5040141;28;20104;-82
2022/03/06 01:11:07;;;;;;;5.97;3.45;;;0.20;78.40;;;;;;5049592;28;20388;-81
2022/03/06 01:13:33;;;;;;;8.57;3.75;;;0.20;78.40;;;;;;5051053;28;20036;-82
2022/03/06 01:15:58;;;;;;;8.35;3.60;;;0.30;78.30;;;;;;5046482;28;20472;-82
2022/03/06 01:18:24;;;;;;;7.53;3.30;;;0.30;78.00;;;;;;5036861;28;20415;-82
2022/03/06 01:20:50;;;;;;;7.13;3.13;;;0.30;78.00;;;;;;5048121;28;20155;-82
2022/03/06 01:23:15;;;;;;;6.45;3.20;;;0.40;77.60;;;;;;5049598;28;20102;-81
2022/03/06 01:25:41;;;;;;;7.15;3.72;;;0.40;77.50;;;;;;5046948;28;20029;-82
2022/03/06 01:28:07;;;;;;;5.13;3.28;;;0.40;77.30;;;;;;5041881;28;20399;-82
2022/03/06 01:30:32;;;;;;;5.95;3.30;;;0.40;77.10;;;;;;5047146;28;20252;-81
2022/03/06 01:33:00;;;;;;;5.45;2.90;;;0.40;77.00;;;;;;5044104;28;20113;-82
2022/03/06 01:35:25;;;;;;;8.07;3.97;;;0.50;77.20;;;;;;5042136;28;20049;-82
2022/03/06 01:37:51;;;;;;;6.82;3.13;;;0.50;77.00;;;;;;5042239;28;20443;-81
2022/03/06 01:40:19;;;;;;;8.23;3.35;;;0.50;76.80;;;;;;5047586;28;20040;-81
2022/03/06 01:42:46;;;;;;;7.55;3.30;;;0.50;76.60;;;;;;5043212;28;20046;-81
2022/03/06 01:45:13;;;;;;;5.78;3.10;;;0.60;76.60;;;;;;5044715;28;20044;-81
2022/03/06 01:47:44;;;;;;;6.25;2.85;;;0.60;76.80;;;;;;5036370;28;20064;-81
2022/03/06 01:50:19;;;;;;;7.70;2.78;;;0.60;77.00;;;;;;5045039;28;20142;-81
2022/03/06 01:52:47;;;;;;;6.80;3.22;;;0.50;77.00;;;;;;5040647;28;20103;-82
2022/03/06 01:55:14;;;;;;;8.57;3.75;;;0.50;77.40;;;;;;5048124;28;20082;-81
2022/03/06 01:57:41;;;;;;;8.25;3.45;;;0.40;77.50;;;;;;5043358;28;20108;-82
2022/03/06 02:00:13;;;;;;;6.38;3.22;;;0.40;77.80;;;;;;5038265;28;20040;-81
2022/03/06 02:02:41;;;;;;;7.72;3.80;;;0.50;78.50;;;;;;5043302;28;20033;-82
2022/03/06 02:05:07;;;;;;;8.18;3.55;;;0.40;78.80;;;;;;5041616;28;20024;-81
2022/03/06 02:07:32;;;;;;;7.28;3.50;;;0.40;79.00;;;;;;5038591;28;20030;-81
2022/03/06 02:09:58;;;;;;;7.10;3.50;;;0.30;78.90;;;;;;5042310;28;20026;-81
2022/03/06 02:12:24;;;;;;;7.18;3.10;;;0.30;79.00;;;;;;5042423;28;20476;-81
2022/03/06 02:14:58;;;;;;;6.50;3.08;;;0.40;79.10;;;;;;5043809;28;20033;-81
2022/03/06 02:17:26;;;;;;;6.65;3.45;;;0.30;79.30;;;;;;5042409;28;20030;-81
2022/03/06 02:19:59;;;;;;;7.85;3.28;;;0.40;79.50;;;;;;5041797;28;20033;-82
2022/03/06 02:22:29;;;;;;;7.05;3.10;;;0.40;79.50;;;;;;5045042;28;20086;-81
2022/03/06 02:24:56;;;;;;;6.90;3.17;;;0.30;79.50;;;;;;5042556;28;20087;-82
2022/03/06 02:27:22;;;;;;;7.72;3.58;;;0.30;79.10;;;;;;5038252;28;20103;-82
2022/03/06 02:29:47;;;;;;;8.65;3.33;;;0.30;78.90;;;;;;5041961;28;20029;-81
2022/03/06 02:32:18;;;;;;;7.75;3.35;;;0.30;78.80;;;;;;5032640;28;20472;-81
2022/03/06 02:34:46;;;;;;;6.57;3.63;;;0.30;78.70;;;;;;5037725;28;20178;-81
2022/03/06 02:37:13;;;;;;;6.97;3.33;;;0.30;78.60;;;;;;5041508;28;20063;-81
2022/03/06 02:39:39;;;;;;;7.80;3.78;;;0.30;78.70;;;;;;5035919;28;20032;-82
2022/03/06 02:42:05;;;;;;;8.52;3.17;;;0.40;79.30;;;;;;5041324;28;20021;-81
2022/03/06 02:44:31;;;;;;;6.95;3.33;;;0.30;79.10;;;;;;5040610;28;20479;-82
2022/03/06 02:46:57;;;;;;;7.78;2.90;;;0.30;78.90;;;;;;5045024;28;20032;-81
2022/03/06 02:49:23;;;;;;;7.55;3.38;;;0.30;78.80;;;;;;5048155;28;20375;-81
2022/03/06 02:51:49;;;;;;;6.30;2.80;;;0.40;78.80;;;;;;5047012;28;20020;-81
2022/03/06 02:54:20;;;;;;;7.28;3.28;;;0.40;79.10;;;;;;5041399;28;20029;-81
2022/03/06 02:56:46;;;;;;;7.85;3.25;;;0.40;78.90;;;;;;5045934;28;20025;-82
2022/03/06 02:59:11;;;;;;;7.15;3.35;;;0.40;78.60;;;;;;5044151;28;20047;-81
2022/03/06 03:01:41;;;;;;;10.32;2.88;;;0.30;78.50;;;;;;5032664;28;20495;-81
2022/03/06 03:04:10;;;;;;;6.55;3.22;;;0.40;78.40;;;;;;5031289;28;20206;-81
2022/03/06 03:06:36;;;;;;;5.90;3.38;;;0.30;78.40;;;;;;5047883;28;20036;-81
2022/03/06 03:09:07;;;;;;;5.45;3.30;;;0.30;78.30;;;;;;5038832;28;20014;-81
2022/03/06 03:11:33;;;;;;;4.72;3.00;;;0.20;78.30;;;;;;5046913;28;20078;-82
2022/03/06 03:14:01;;;;;;;7.45;3.50;;;0.20;78.30;;;;;;5049447;28;20482;-82
2022/03/06 03:16:26;;;;;;;6.38;3.13;;;0.30;78.40;;;;;;5044230;28;20023;-81
2022/03/06 03:18:52;;;;;;;8.05;3.40;;;0.30;78.40;;;;;;5041500;28;20516;-81
2022/03/06 03:21:18;;;;;;;5.28;2.80;;;0.30;78.50;;;;;;5032359;28;20129;-82
2022/03/06 03:23:43;;;;;;;4.45;2.70;;;0.30;78.70;;;;;;5039930;28;20382;-81
2022/03/06 03:26:09;;;;;;;6.22;2.85;;;0.30;78.60;;;;;;5042439;28;20028;-81
2022/03/06 03:28:34;;;;;;;9.25;3.03;;;0.40;79.00;;;;;;5046192;28;20028;-81
2022/03/06 03:31:00;;;;;;;6.78;2.72;;;0.40;79.10;;;;;;5042039;28;20032;-81
2022/03/06 03:36:02;;;;;;;6.03;3.20;;;0.30;78.90;;;;;;5129036;22;20577;-82
2022/03/06 03:38:28;;;;;;;6.80;3.47;;;0.40;79.00;;;;;;5053537;28;20404;-81
2022/03/06 03:40:53;;;;;;;6.05;3.25;;;0.40;79.30;;;;;;5049645;28;20037;-82
2022/03/06 03:43:19;;;;;;;6.55;3.10;;;0.40;79.20;;;;;;5048823;28;20025;-82
2022/03/06 03:45:44;;;;;;;6.28;2.97;;;0.40;79.20;;;;;;5045392;28;20515;-82
2022/03/06 03:48:10;;;;;;;7.40;3.05;;;0.40;79.00;;;;;;5044004;28;20021;-82
2022/03/06 03:50:36;;;;;;;6.03;2.83;;;0.40;79.30;;;;;;5040297;28;20052;-82
2022/03/06 03:53:01;;;;;;;6.05;2.50;;;0.40;79.50;;;;;;5044452;28;20123;-82
2022/03/06 03:55:27;;;;;;;7.93;2.75;;;0.40;79.20;;;;;;5050192;28;20025;-82
2022/03/06 03:57:52;;;;;;;7.43;2.95;;;0.40;79.10;;;;;;5045360;28;20025;-82
2022/03/06 04:00:18;;;;;;;8.68;3.13;;;0.40;79.00;;;;;;5041155;28;20103;-82
2022/03/06 04:02:43;;;;;;;4.55;2.53;;;0.40;79.10;;;;;;5041608;28;20036;-82
2022/03/06 04:05:09;;;;;;;4.85;2.72;;;0.30;79.00;;;;;;5049746;28;20032;-82
2022/03/06 04:07:34;;;;;;;6.82;3.47;;;0.40;79.20;;;;;;5046055;28;20025;-82
2022/03/06 04:10:00;;;;;;;4.43;2.67;;;0.40;79.60;;;;;;5037744;28;20484;-82
2022/03/06 04:12:25;;;;;;;6.15;2.75;;;0.40;79.60;;;;;;5044181;28;20025;-82
2022/03/06 04:14:51;;;;;;;10.50;3.10;;;0.40;79.60;;;;;;5050574;28;20040;-82
2022/03/06 04:17:16;;;;;;;6.07;2.83;;;0.40;79.60;;;;;;5041170;28;20483;-82
2022/03/06 04:19:42;;;;;;;5.55;2.80;;;0.40;79.50;;;;;;5036869;28;20026;-82
2022/03/06 04:22:07;;;;;;;5.28;2.65;;;0.40;79.70;;;;;;5045228;28;20026;-82
2022/03/06 04:24:33;;;;;;;4.63;2.75;;;0.40;79.50;;;;;;5052616;28;20033;-82
2022/03/06 04:26:58;;;;;;;10.93;3.10;;;0.40;79.50;;;;;;5055032;28;20471;-81
2022/03/06 04:29:24;;;;;;;5.75;2.97;;;0.30;79.30;;;;;;5053002;28;20033;-81
2022/03/06 04:31:49;;;;;;;6.55;2.70;;;0.30;79.40;;;;;;5052329;28;20074;-83
2022/03/06 04:34:15;;;;;;;5.43;2.80;;;0.30;79.10;;;;;;5057963;28;20120;-82
2022/03/06 04:36:41;;;;;;;8.85;3.00;;;0.30;79.40;;;;;;5044209;28;20032;-82
2022/03/06 04:39:06;;;;;;;5.63;2.25;;;0.30;79.60;;;;;;5051768;28;20102;-83
2022/03/06 04:41:32;;;;;;;4.85;2.55;;;0.20;79.50;;;;;;5051829;28;20037;-82
2022/03/06 04:43:58;;;;;;;9.95;2.30;;;0.20;79.60;;;;;;5055366;28;20112;-82
2022/03/06 04:46:24;;;;;;;4.03;2.58;;;0.20;79.80;;;;;;5043495;28;20029;-82
2022/03/06 04:48:50;;;;;;;6.95;2.85;;;0.20;80.00;;;;;;5046881;28;20033;-81
2022/03/06 04:51:15;;;;;;;5.85;2.65;;;0.20;80.20;;;;;;5053842;28;20048;-81
2022/03/06 04:53:41;;;;;;;6.00;2.83;;;0.20;80.20;;;;;;5049555;28;20033;-81
2022/03/06 04:56:07;;;;;;;6.07;2.65;;;0.10;80.20;;;;;;5048531;28;20021;-80
2022/03/06 04:58:32;;;;;;;5.50;2.92;;;0.10;80.00;;;;;;5048508;28;20053;-81
2022/03/06 05:00:58;;;;;;;4.82;2.20;;;0.10;80.00;;;;;;5044632;28;20034;-81
2022/03/06 05:03:23;;;;;;;5.88;2.88;;;0.10;79.90;;;;;;5054483;28;20028;-81
2022/03/06 05:05:50;;;;;;;5.60;2.80;;;0.10;80.10;;;;;;5042481;28;20148;-81
2022/03/06 05:08:16;;;;;;;6.68;2.60;;;0.10;80.30;;;;;;5040579;28;20457;-81
2022/03/06 05:10:41;;;;;;;7.93;3.10;;;0.10;80.60;;;;;;5065247;28;20522;-82
2022/03/06 05:13:09;;;;;;;5.63;2.58;;;0.10;80.40;;;;;;5036835;28;20128;-81
2022/03/06 05:15:35;;;;;;;5.38;2.53;;;0.10;80.20;;;;;;5049994;28;20444;-81
2022/03/06 05:18:01;;;;;;;7.00;3.13;;;0.10;80.70;;;;;;5041445;28;20053;-81
2022/03/06 05:20:27;;;;;;;5.45;2.78;;;0.00;80.70;;;;;;5049371;28;20033;-81
2022/03/06 05:22:52;;;;;;;6.25;2.75;;;0.00;80.70;;;;;;5048345;28;20029;-82
2022/03/06 05:25:18;;;;;;;8.50;3.20;;;0.00;80.60;;;;;;5052705;28;20526;-82
2022/03/06 05:27:44;;;;;;;9.30;3.30;;;0.10;80.80;;;;;;5039369;28;20037;-82
2022/03/06 05:30:11;;;;;;;8.30;3.20;;;0.10;80.90;;;;;;5049523;28;20064;-82
2022/03/06 05:32:38;;;;;;;5.05;2.70;;;0.10;81.00;;;;;;5046908;28;20086;-81
2022/03/06 05:35:04;;;;;;;5.20;3.00;;;0.10;81.10;;;;;;5044077;28;20136;-81
2022/03/06 05:37:30;;;;;;;8.23;2.92;;;0.00;81.10;;;;;;5040285;28;20025;-81
2022/03/06 05:39:56;;;;;;;8.02;3.00;;;0.00;81.10;;;;;;5056702;28;20107;-81
2022/03/06 05:42:21;;;;;;;5.10;2.80;;;0.00;81.10;;;;;;5048862;28;20025;-81
2022/03/06 05:44:47;;;;;;;6.45;3.28;;;0.00;81.10;;;;;;5055561;28;20071;-82
2022/03/06 05:47:12;;;;;;;8.93;3.38;;;0.00;81.20;;;;;;5045780;28;20899;-81
2022/03/06 05:49:38;;;;;;;6.85;3.00;;;0.00;81.50;;;;;;5072773;28;20115;-81
2022/03/06 05:52:04;;;;;;;9.90;3.60;;;0.00;81.50;;;;;;5049741;28;20029;-82
2022/03/06 05:54:30;;;;;;;7.20;3.72;;;0.10;81.70;;;;;;5054536;28;20033;-82
2022/03/06 05:56:55;;;;;;;6.22;3.42;;;0.10;81.80;;;;;;5041997;28;20026;-81
2022/03/06 05:59:21;;;;;;;5.90;3.15;;;0.10;81.80;;;;;;5041491;28;20876;-82
2022/03/06 06:01:47;;;;;;;4.65;2.75;;;0.00;81.50;;;;;;5044373;28;20040;-82
2022/03/06 06:04:13;;;;;;;8.23;3.70;;;0.00;81.40;;;;;;5055194;28;20020;-81
2022/03/06 06:06:39;;;;;;;7.72;3.33;;;0.00;81.40;;;;;;5051017;28;20028;-81
2022/03/06 06:09:04;;;;;;;6.43;3.42;;;0.00;81.60;;;;;;5051969;28;20033;-81
2022/03/06 06:11:30;;;;;;;8.65;3.78;;;0.00;81.70;;;;;;5045389;28;20032;-81
2022/03/06 06:13:56;;;;;;;7.95;3.97;;;0.10;81.80;;;;;;5051683;28;20482;-82
2022/03/06 06:16:22;;;;;;;8.38;4.03;;;0.10;82.20;;;;;;5053262;28;20033;-83
2022/03/06 06:18:47;;;;;;;8.32;4.18;;;0.20;82.30;;;;;;5036472;28;20045;-83
2022/03/06 06:21:16;;;;;;;11.48;4.07;;;0.10;82.10;;;;;;5046648;28;20021;-83
2022/03/06 06:23:42;;;;;;;7.03;3.85;;;0.20;82.30;;;;;;5053750;28;20101;-82
2022/03/06 06:26:08;;;;;;;7.22;3.75;;;0.20;82.50;;;;;;5056663;28;20472;-83
2022/03/06 06:28:33;;;;;;;6.28;3.55;;;0.20;82.40;;;;;;5049766;28;20021;-84
2022/03/06 06:30:59;;;;;;;8.15;4.03;;;0.30;82.70;;;;;;5036282;28;20214;-84
2022/03/06 06:33:25;;;;;;;8.48;3.95;;;0.30;82.40;;;;;;5044397;28;20480;-82
2022/03/06 06:35:50;;;;;;;7.57;3.22;;;0.30;82.40;;;;;;5047357;28;20511;-84
2022/03/06 06:38:16;;;;;;;6.97;3.80;;;0.30;82.20;;;;;;5048819;28;20039;-83
2022/03/06 06:40:42;;;;;;;8.27;3.60;;;0.40;82.30;;;;;;5044985;28;20048;-83
2022/03/06 06:43:07;;;;;;;5.70;3.28;;;0.40;82.10;;;;;;5038631;28;20059;-82
2022/03/06 06:45:33;;;;;;;6.57;3.67;;;0.40;82.00;;;;;;5046868;28;20162;-82
2022/03/06 06:47:58;;;;;;;7.85;3.50;;;0.50;82.00;;;;;;5040723;28;20400;-82
2022/03/06 06:50:24;;;;;;;5.65;3.08;;;0.50;81.80;;;;;;5051427;28;20070;-83
2022/03/06 06:52:50;;;;;;;5.63;3.13;;;0.50;81.60;;;;;;5042683;28;20033;-82
2022/03/06 06:55:15;;;;;;;6.00;3.25;;;0.50;81.50;;;;;;5048350;28;20093;-82
2022/03/06 06:57:41;;;;;;;5.90;3.00;;;0.60;81.30;;;;;;5040595;28;20028;-82
2022/03/06 07:00:07;;;;;;;10.60;3.78;;;0.60;81.30;;;;;;5054575;28;20048;-82
2022/03/06 07:02:33;;;;;;;8.00;3.03;;;0.60;81.10;;;;;;5045708;28;20056;-82
2022/03/06 07:04:58;;;;;;;5.60;3.22;;;0.60;81.00;;;;;;5052625;28;20029;-82
2022/03/06 07:07:24;;;;;;;8.20;3.42;;;0.60;80.90;;;;;;5045003;28;20021;-81
2022/03/06 07:09:50;;;;;;;7.38;3.33;;;0.70;80.80;;;;;;5038295;28;20029;-81
2022/03/06 07:12:15;;;;;;;8.55;2.90;;;0.70;80.70;;;;;;5043026;28;20048;-82
2022/03/06 07:14:41;;;;;;;6.25;3.00;;;0.70;80.60;;;;;;5042262;28;20080;-82
2022/03/06 07:17:06;;;;;;;9.38;3.15;;;0.70;80.80;;;;;;5048510;28;20403;-82
2022/03/06 07:19:33;;;;;;;6.93;3.50;;;0.80;80.90;;;;;;5051561;28;20041;-82
2022/03/06 07:21:59;;;;;;;6.70;2.83;;;0.90;80.60;;;;;;5052152;28;20021;-81
2022/03/06 07:24:25;;;;;;;5.88;2.75;;;0.90;80.30;;;;;;5049550;28;20071;-81
2022/03/06 07:26:51;;;;;;;5.53;2.55;;;1.00;80.50;;;;;;5049088;28;20040;-81
2022/03/06 07:29:16;;;;;;;7.55;2.60;;;0.90;80.10;;;;;;5033472;28;20026;-81
2022/03/06 07:31:42;;;;;;;5.32;2.53;;;1.00;79.80;;;;;;5038667;28;20040;-83
2022/03/06 07:34:07;;;;;;;4.78;2.50;;;1.10;79.70;;;;;;5052879;28;20029;-82
2022/03/06 07:36:33;;;;;;;6.90;2.63;;;1.10;79.60;;;;;;5037439;28;20040;-82
2022/03/06 07:38:58;;;;;;;5.53;2.55;;;1.10;79.40;;;;;;5036590;28;20036;-83
2022/03/06 07:41:24;;;;;;;5.93;2.78;;;1.10;79.30;;;;;;5049451;28;20388;-83
2022/03/06 07:43:50;;;;;;;6.07;2.40;;;1.20;79.30;;;;;;5038260;28;20076;-83
2022/03/06 07:46:15;;;;;;;9.35;2.97;;;1.20;78.70;;;;;;5049362;28;20029;-83
2022/03/06 07:48:41;;;;;;;6.25;2.35;;;1.30;78.70;;;;;;5060290;28;20029;-83
2022/03/06 07:51:06;;;;;;;4.70;2.58;;;1.30;78.40;;;;;;5051843;28;20414;-83
2022/03/06 07:53:32;;;;;;;5.40;2.60;;;1.40;78.20;;;;;;5048869;28;20025;-83
2022/03/06 07:55:57;;;;;;;5.13;2.30;;;1.40;77.90;;;;;;5054126;28;20677;-82
2022/03/06 07:58:23;;;;;;;5.43;2.50;;;1.50;77.40;;;;;;5037464;28;20048;-81
2022/03/06 08:00:48;;;;;;;7.78;2.88;;;1.60;77.30;;;;;;5069082;28;20033;-82
2022/03/06 08:03:15;;;;;;;4.72;2.28;;;1.60;76.90;;;;;;5049118;28;20538;-81
2022/03/06 08:05:41;;;;;;;5.18;2.50;;;1.70;76.70;;;;;;5040405;28;20241;-82
2022/03/06 08:08:07;;;;;;;6.05;2.50;;;1.70;76.20;;;;;;5036043;28;20049;-81
2022/03/06 08:10:33;;;;;;;4.35;2.50;;;1.70;75.20;;;;;;5049577;28;20036;-81
2022/03/06 08:12:58;;;;;;;4.78;2.30;;;1.70;74.90;;;;;;5044675;28;20582;-81
2022/03/06 08:15:24;;;;;;;5.80;2.42;;;1.80;75.30;;;;;;5051503;28;20040;-81
2022/03/06 08:17:49;;;;;;;6.78;2.75;;;2.00;75.30;;;;;;5045077;28;20021;-81
2022/03/06 08:20:15;;;;;;;7.78;2.67;;;2.10;74.80;;;;;;5037937;28;20052;-82
2022/03/06 08:22:40;;;;;;;5.47;2.20;;;2.20;74.60;;;;;;5049769;28;20025;-81
2022/03/06 08:25:07;;;;;;;5.05;2.47;;;2.20;73.60;;;;;;5043035;28;20437;-82
2022/03/06 08:27:33;;;;;;;4.70;2.72;;;2.20;73.00;;;;;;5038368;28;20022;-81
2022/03/06 08:29:59;;;;;;;4.57;2.42;;;2.30;73.60;;;;;;5044280;28;20026;-82
2022/03/06 08:32:25;;;;;;;4.63;2.80;;;2.30;72.50;;;;;;5052361;28;20349;-81
2022/03/06 08:34:51;;;;;;;9.27;5.82;;;2.40;72.80;;;;;;5053115;28;20037;-81
2022/03/06 08:37:18;;;;;;;4.57;2.65;;;2.40;71.90;;;;;;5050318;28;20028;-81
2022/03/06 08:39:45;;;;;;;5.40;2.97;;;2.30;70.20;;;;;;5050988;28;20378;-81
2022/03/06 08:42:11;;;;;;;5.38;2.80;;;2.50;70.70;;;;;;5044986;28;20048;-81
2022/03/06 08:44:37;;;;;;;3.60;2.38;;;2.30;70.20;;;;;;5045683;28;20036;-81
2022/03/06 08:47:03;;;;;;;5.93;2.45;;;2.40;71.00;;;;;;5052755;28;20040;-80
2022/03/06 08:49:28;;;;;;;6.47;2.58;;;2.40;69.20;;;;;;5048040;28;20040;-81
2022/03/06 08:51:54;;;;;;;5.28;2.47;;;2.60;70.20;;;;;;5050073;28;20026;-81
2022/03/06 08:54:21;;;;;;;3.38;2.20;;;2.80;70.60;;;;;;5050585;28;20422;-81
2022/03/06 08:56:46;;;;;;;5.80;2.70;;;2.80;68.80;;;;;;5052123;28;20029;-81
2022/03/06 08:59:12;;;;;;;6.13;2.40;;;2.90;68.40;;;;;;5050316;28;20029;-81
2022/03/06 09:01:38;;;;;;;9.57;5.90;;;2.90;68.00;;;;;;5047209;28;20045;-81
2022/03/06 09:04:04;;;;;;;6.60;2.60;;;3.10;68.50;;;;;;5049574;28;20025;-81
2022/03/06 09:06:30;;;;;;;3.60;2.28;;;3.10;65.90;;;;;;5044970;28;20027;-81
2022/03/06 09:08:55;;;;;;;5.05;3.30;;;3.20;66.10;;;;;;5045562;28;20080;-81
2022/03/06 09:11:21;;;;;;;6.38;2.33;;;3.20;65.90;;;;;;5048567;28;20486;-81
2022/03/06 09:13:46;;;;;;;4.00;2.58;;;3.40;66.10;;;;;;5049241;28;20025;-81
2022/03/06 09:16:12;;;;;;;8.65;2.75;;;3.20;65.80;;;;;;5053696;28;20081;-81
2022/03/06 09:18:37;;;;;;;4.97;2.30;;;3.20;65.20;;;;;;5049679;28;20025;-81
2022/03/06 09:21:03;;;;;;;5.03;2.42;;;2.90;64.00;;;;;;5051852;28;20027;-81
2022/03/06 09:23:29;;;;;;;4.28;2.38;;;3.10;64.00;;;;;;5060591;28;20033;-81
2022/03/06 09:25:54;;;;;;;3.10;2.00;;;3.10;62.50;;;;;;5046773;28;20044;-82
2022/03/06 09:28:20;;;;;;;4.70;2.35;;;2.80;62.10;;;;;;5049267;28;20033;-82
2022/03/06 09:30:46;;;;;;;5.40;2.97;;;3.00;63.80;;;;;;5053675;28;20064;-81
2022/03/06 09:33:11;;;;;;;4.90;2.58;;;2.60;62.50;;;;;;5042649;28;20387;-81
2022/03/06 09:35:37;;;;;;;6.80;2.45;;;3.00;63.30;;;;;;5028871;28;20083;-81
2022/03/06 09:38:03;;;;;;;5.20;2.90;;;2.80;59.20;;;;;;5029403;28;20033;-81
2022/03/06 09:40:29;;;;;;;6.13;2.97;;;3.30;62.60;;;;;;5017618;28;20041;-81
2022/03/06 09:42:54;;;;;;;5.90;3.20;;;3.80;62.00;;;;;;5033038;28;20468;-81
2022/03/06 09:45:23;;;;;;;6.55;3.35;;;3.90;58.40;;;;;;5056485;28;20041;-81
2022/03/06 09:47:49;;;;;;;6.57;3.35;;;4.00;55.90;;;;;;5069032;28;20025;-81
2022/03/06 09:50:16;;;;;;;6.88;3.47;;;4.10;56.30;;;;;;5055493;28;20183;-81
2022/03/06 09:52:42;;;;;;;5.15;3.25;;;4.50;56.00;;;;;;5050230;28;20461;-81
2022/03/06 09:55:12;;;;;;;5.90;2.83;;;4.60;52.10;;;;;;5053668;28;20114;-81
2022/03/06 09:57:38;;;;;;;4.88;3.20;;;5.10;54.00;;;;;;5047864;28;20048;-81
2022/03/06 10:00:06;;;;;;;5.13;2.85;;;4.90;53.30;;;;;;5061447;28;20078;-81
2022/03/06 10:02:31;;;;;;;4.72;3.30;;;5.40;54.00;;;;;;5045118;28;20035;-81
2022/03/06 10:04:57;;;;;;;5.03;3.10;;;5.60;53.10;;;;;;5051213;28;20084;-81
2022/03/06 10:07:23;;;;;;;4.47;2.72;;;5.90;52.50;;;;;;5045514;28;20560;-81
2022/03/06 10:09:50;;;;;;;5.50;2.53;;;5.00;54.30;;;;;;5050206;28;20472;-82
2022/03/06 10:12:30;;;;;;;4.60;2.75;;;4.90;53.40;;;;;;5066801;28;20024;-81
2022/03/06 10:14:58;;;;;;;6.13;2.90;;;4.90;53.80;;;;;;5057332;28;20027;-82
2022/03/06 10:17:25;;;;;;;5.20;3.00;;;5.50;53.50;;;;;;5063019;28;20087;-81
2022/03/06 10:19:57;;;;;;;4.85;3.00;;;5.10;51.00;;;;;;5049869;28;20054;-82
2022/03/06 10:22:45;;;;;;;6.80;3.00;;;5.60;51.60;;;;;;5045998;28;20460;-84
2022/03/06 10:25:16;;;;;;;5.53;3.03;;;6.00;51.40;;;;;;5047713;28;20033;-84
2022/03/06 10:27:54;;;;;;;5.55;3.05;;;5.50;51.10;;;;;;5042895;28;20025;-84
2022/03/06 10:30:33;;;;;;;5.32;3.13;;;5.80;52.50;;;;;;5054761;28;20029;-84
2022/03/06 10:33:01;;;;;;;6.45;2.83;;;6.60;50.00;;;;;;5046106;28;20033;-83
2022/03/06 10:35:36;;;;;;;8.43;3.03;;;5.90;49.40;;;;;;5044682;28;20053;-80
2022/03/06 10:38:23;;;;;;;5.75;2.58;;;6.10;53.60;;;;;;5046094;28;20108;-80
2022/03/06 10:40:49;;;;;;;4.15;2.72;;;6.20;50.90;;;;;;5040819;28;20031;-80
2022/03/06 10:43:22;;;;;;;5.28;2.67;;;5.80;51.30;;;;;;5058836;28;20036;-80
2022/03/06 10:45:48;;;;;;;5.65;2.65;;;5.20;50.90;;;;;;5045793;28;20025;-80
2022/03/06 10:48:14;;;;;;;5.82;2.55;;;5.20;51.60;;;;;;5046700;28;20028;-80
2022/03/06 10:50:40;;;;;;;4.75;2.67;;;5.20;52.40;;;;;;5043967;28;20360;-80
2022/03/06 10:53:20;;;;;;;4.80;2.85;;;5.30;51.90;;;;;;5045512;28;20037;-80
2022/03/06 10:55:47;;;;;;;4.07;2.23;;;5.20;51.90;;;;;;5042524;28;20021;-80
2022/03/06 10:58:13;;;;;;;3.63;2.33;;;4.80;51.50;;;;;;5038555;28;20407;-80
2022/03/06 11:00:40;;;;;;;4.30;2.33;;;4.50;53.10;;;;;;5049508;28;20029;-80
2022/03/06 11:03:07;;;;;;;4.13;2.15;;;4.50;53.30;;;;;;5048269;28;20021;-80
2022/03/06 11:05:33;;;;;;;3.85;2.08;;;5.10;54.00;;;;;;5043598;28;20090;-80
2022/03/06 11:08:00;;;;;;;5.53;2.58;;;5.40;52.60;;;;;;5047643;28;20077;-80
2022/03/06 11:10:26;;;;;;;3.42;2.20;;;5.90;53.00;;;;;;5047733;28;20383;-80
2022/03/06 11:12:51;;;;;;;4.45;2.22;;;6.10;50.40;;;;;;5046725;28;20036;-80
2022/03/06 11:15:17;;;;;;;5.00;2.50;;;6.20;49.60;;;;;;5045423;28;20025;-80
2022/03/06 11:17:43;;;;;;;2.83;1.77;;;5.50;49.80;;;;;;5051386;28;20017;-80
2022/03/06 11:20:09;;;;;;;6.75;2.00;;;5.40;51.10;;;;;;5045818;28;20032;-80
2022/03/06 11:22:49;;;;;;;4.10;2.03;;;5.70;49.80;;;;;;5045350;28;20016;-81
2022/03/06 11:25:20;;;;;;;4.25;1.92;;;6.10;49.40;;;;;;5051466;28;20029;-80
2022/03/06 11:28:09;;;;;;;4.53;1.80;;;6.70;48.70;;;;;;5043222;28;20023;-80
2022/03/06 11:30:35;;;;;;;3.78;1.70;;;6.60;47.70;;;;;;5049670;28;20090;-79
2022/03/06 11:33:06;;;;;;;2.80;1.75;;;6.20;49.60;;;;;;5047610;28;20026;-79
2022/03/06 11:35:39;;;;;;;4.97;1.73;;;7.00;49.40;;;;;;5055941;28;20088;-80
2022/03/06 11:38:06;;;;;;;5.28;1.90;;;7.00;46.10;;;;;;5045258;28;20033;-80
2022/03/06 11:40:43;;;;;;;2.50;1.67;;;7.50;46.90;;;;;;5049428;28;20044;-80
2022/03/06 11:43:09;;;;;;;3.90;1.98;;;7.00;46.40;;;;;;5045590;28;20030;-80
2022/03/06 11:45:53;;;;;;;4.50;1.60;;;7.40;46.70;;;;;;5055578;28;20033;-80
2022/03/06 11:48:33;;;;;;;3.40;1.63;;;7.20;46.80;;;;;;5049561;28;20044;-80
2022/03/06 11:51:14;;;;;;;4.45;1.70;;;7.70;44.10;;;;;;5052278;28;20052;-81
2022/03/06 11:54:10;;;;;;;3.90;1.83;;;7.90;45.00;;;;;;5049612;28;20451;-81
2022/03/06 11:56:38;;;;;;;2.28;1.48;;;8.30;43.70;;;;;;5050771;28;20108;-81
2022/03/06 11:59:24;;;;;;;3.38;2.08;;;8.70;42.70;;;;;;5059120;28;20025;-81
2022/03/06 12:01:53;;;;;;;5.13;2.40;;;8.80;42.50;;;;;;5050155;28;20045;-81
2022/03/06 12:04:27;;;;;;;5.13;1.98;;;8.40;42.00;;;;;;5053468;28;20053;-81
2022/03/06 12:07:06;;;;;;;3.88;2.20;;;8.10;43.00;;;;;;5049430;28;20060;-81
2022/03/06 12:09:36;;;;;;;13.50;8.93;;;8.10;44.80;;;;;;5046433;28;20028;-81
2022/03/06 12:12:04;;;;;;;2.88;1.85;;;7.50;46.10;;;;;;5050387;28;20061;-81
2022/03/06 12:14:44;;;;;;;1.90;1.58;;;8.50;45.60;;;;;;5057845;28;20494;-81
2022/03/06 12:17:11;;;;;;;4.03;1.60;;;8.70;43.20;;;;;;5047520;28;20079;-81
2022/03/06 12:19:42;;;;;;;4.55;1.92;;;8.10;45.90;;;;;;5053128;28;20034;-81
2022/03/06 12:22:11;;;;;;;4.70;1.83;;;7.60;45.40;;;;;;5045535;28;20369;-81
2022/03/06 12:24:38;;;;;;;5.18;1.80;;;7.40;46.20;;;;;;5049581;28;20029;-81
2022/03/06 12:27:11;;;;;;;3.78;2.10;;;8.10;46.10;;;;;;5067553;28;20029;-81
2022/03/06 12:29:46;;;;;;;4.85;1.50;;;8.60;42.00;;;;;;5048750;28;20388;-81
2022/03/06 12:32:29;;;;;;;2.55;1.38;;;9.10;41.80;;;;;;5046984;28;20029;-81
2022/03/06 12:35:09;;;;;;;2.72;1.40;;;9.40;43.60;;;;;;5045918;28;20046;-81
2022/03/06 12:37:48;;;;;;;3.95;1.80;;;8.20;40.60;;;;;;5041651;28;20037;-81
2022/03/06 12:40:20;;;;;;;3.33;1.70;;;8.40;45.20;;;;;;5054205;28;20064;-81
2022/03/06 12:42:49;;;;;;;3.78;1.75;;;8.60;43.00;;;;;;5052011;28;20037;-82
2022/03/06 12:45:17;;;;;;;5.00;1.95;;;9.30;43.30;;;;;;5055197;28;20021;-81
2022/03/06 12:47:45;;;;;;;5.07;1.85;;;9.60;40.70;;;;;;5040608;28;20064;-81
2022/03/06 12:50:16;;;;;;;3.45;1.50;;;9.70;39.60;;;;;;5053478;28;20460;-81
2022/03/06 12:52:43;;;;;;;6.40;1.50;;;9.20;40.40;;;;;;5044519;28;20116;-82
2022/03/06 12:55:16;;;;;;;2.40;1.35;;;7.80;43.20;;;;;;5047789;28;20487;-82
2022/03/06 12:57:46;;;;;;;3.05;1.80;;;7.70;44.60;;;;;;5044229;28;20037;-81
2022/03/06 13:00:17;;;;;;;3.30;1.65;;;8.20;44.90;;;;;;5052423;28;20368;-81